sensor_id;sensor_type;location;lat;lon;timestamp;P1;durP1;ratioP1;P2;durP2;ratioP2
1679;SDS011;838;51.794;12.258;2022-12-26T00:01:32;5.60;;;3.83;;
1679;SDS011;838;51.794;12.258;2022-12-26T00:03:59;5.20;;;3.77;;
1679;SDS011;838;51.794;12.258;2022-12-26T00:06:25;5.73;;;4.10;;
1679;SDS011;838;51.794;12.258;2022-12-26T00:08:53;5.43;;;4.03;;
1679;SDS011;838;51.794;12.258;2022-12-26T00:11:19;5.10;;;3.77;;
1679;SDS011;838;51.794;12.258;2022-12-26T00:13:46;5.67;;;4.00;;
1679;SDS011;838;51.794;12.258;2022-12-26T00:16:17;6.77;;;4.30;;
1679;SDS011;838;51.794;12.258;2022-12-26T00:18:44;6.50;;;4.60;;
1679;SDS011;838;51.794;12.258;2022-12-26T00:21:11;6.63;;;4.30;;
1679;SDS011;838;51.794;12.258;2022-12-26T00:23:38;7.43;;;4.37;;
1679;SDS011;838;51.794;12.258;2022-12-26T00:26:05;6.07;;;4.00;;
1679;SDS011;838;51.794;12.258;2022-12-26T00:28:33;5.70;;;4.20;;
1679;SDS011;838;51.794;12.258;2022-12-26T00:31:02;4.50;;;3.70;;
1679;SDS011;838;51.794;12.258;2022-12-26T00:33:32;6.43;;;4.30;;
1679;SDS011;838;51.794;12.258;2022-12-26T00:36:03;8.80;;;5.33;;
1679;SDS011;838;51.794;12.258;2022-12-26T00:38:32;6.17;;;4.30;;
1679;SDS011;838;51.794;12.258;2022-12-26T00:40:59;5.80;;;4.70;;
1679;SDS011;838;51.794;12.258;2022-12-26T00:43:25;7.20;;;5.10;;
1679;SDS011;838;51.794;12.258;2022-12-26T00:45:51;9.67;;;4.27;;
1679;SDS011;838;51.794;12.258;2022-12-26T00:48:16;5.33;;;4.30;;
1679;SDS011;838;51.794;12.258;2022-12-26T00:50:42;5.30;;;4.07;;
1679;SDS011;838;51.794;12.258;2022-12-26T00:53:08;8.43;;;5.20;;
1679;SDS011;838;51.794;12.258;2022-12-26T00:55:34;8.37;;;5.10;;
1679;SDS011;838;51.794;12.258;2022-12-26T00:57:59;6.20;;;4.40;;
1679;SDS011;838;51.794;12.258;2022-12-26T01:00:25;7.67;;;4.97;;
1679;SDS011;838;51.794;12.258;2022-12-26T01:02:51;5.77;;;4.53;;
1679;SDS011;838;51.794;12.258;2022-12-26T01:05:17;6.70;;;4.60;;
1679;SDS011;838;51.794;12.258;2022-12-26T01:07:42;5.90;;;4.50;;
1679;SDS011;838;51.794;12.258;2022-12-26T01:10:10;5.40;;;4.10;;
1679;SDS011;838;51.794;12.258;2022-12-26T01:12:37;5.97;;;4.47;;
1679;SDS011;838;51.794;12.258;2022-12-26T01:15:03;6.70;;;4.97;;
1679;SDS011;838;51.794;12.258;2022-12-26T01:17:30;6.80;;;4.90;;
1679;SDS011;838;51.794;12.258;2022-12-26T01:19:56;5.40;;;4.10;;
1679;SDS011;838;51.794;12.258;2022-12-26T01:22:22;7.80;;;4.93;;
1679;SDS011;838;51.794;12.258;2022-12-26T01:24:49;6.93;;;4.47;;
1679;SDS011;838;51.794;12.258;2022-12-26T01:27:21;6.80;;;5.20;;
1679;SDS011;838;51.794;12.258;2022-12-26T01:29:47;6.33;;;4.47;;
1679;SDS011;838;51.794;12.258;2022-12-26T01:32:13;5.50;;;4.23;;
1679;SDS011;838;51.794;12.258;2022-12-26T01:34:39;6.17;;;4.10;;
1679;SDS011;838;51.794;12.258;2022-12-26T01:37:05;7.43;;;5.10;;
1679;SDS011;838;51.794;12.258;2022-12-26T01:39:30;5.73;;;4.23;;
1679;SDS011;838;51.794;12.258;2022-12-26T01:41:56;6.60;;;4.20;;
1679;SDS011;838;51.794;12.258;2022-12-26T01:50:52;6.27;;;4.60;;
1679;SDS011;838;51.794;12.258;2022-12-26T01:52:59;7.00;;;4.00;;
1679;SDS011;838;51.794;12.258;2022-12-26T01:55:32;6.20;;;3.87;;
1679;SDS011;838;51.794;12.258;2022-12-26T01:58:03;5.60;;;4.07;;
1679;SDS011;838;51.794;12.258;2022-12-26T02:00:33;6.90;;;4.30;;
1679;SDS011;838;51.794;12.258;2022-12-26T02:03:01;5.20;;;3.87;;
1679;SDS011;838;51.794;12.258;2022-12-26T02:05:46;5.63;;;3.93;;
1679;SDS011;838;51.794;12.258;2022-12-26T02:08:14;6.20;;;4.20;;
1679;SDS011;838;51.794;12.258;2022-12-26T02:13:43;5.10;;;3.57;;
1679;SDS011;838;51.794;12.258;2022-12-26T02:16:10;6.60;;;3.93;;
1679;SDS011;838;51.794;12.258;2022-12-26T02:18:38;6.73;;;3.90;;
1679;SDS011;838;51.794;12.258;2022-12-26T02:34:20;7.73;;;4.00;;
1679;SDS011;838;51.794;12.258;2022-12-26T02:50:44;7.53;;;3.87;;
1679;SDS011;838;51.794;12.258;2022-12-26T02:56:45;5.27;;;4.10;;
1679;SDS011;838;51.794;12.258;2022-12-26T02:59:54;6.07;;;4.20;;
1679;SDS011;838;51.794;12.258;2022-12-26T03:02:45;7.23;;;3.57;;
1679;SDS011;838;51.794;12.258;2022-12-26T03:05:40;5.10;;;3.93;;
1679;SDS011;838;51.794;12.258;2022-12-26T03:09:06;5.07;;;3.60;;
1679;SDS011;838;51.794;12.258;2022-12-26T03:12:49;7.83;;;4.20;;
1679;SDS011;838;51.794;12.258;2022-12-26T03:15:26;4.90;;;3.80;;
1679;SDS011;838;51.794;12.258;2022-12-26T03:18:15;6.07;;;3.20;;
1679;SDS011;838;51.794;12.258;2022-12-26T03:20:43;7.37;;;3.80;;
1679;SDS011;838;51.794;12.258;2022-12-26T03:23:10;5.43;;;3.97;;
1679;SDS011;838;51.794;12.258;2022-12-26T03:25:47;6.00;;;3.73;;
1679;SDS011;838;51.794;12.258;2022-12-26T03:28:38;6.90;;;3.63;;
1679;SDS011;838;51.794;12.258;2022-12-26T03:31:06;4.43;;;3.20;;
1679;SDS011;838;51.794;12.258;2022-12-26T03:33:36;5.00;;;3.50;;
1679;SDS011;838;51.794;12.258;2022-12-26T03:42:41;4.30;;;3.03;;
1679;SDS011;838;51.794;12.258;2022-12-26T03:45:41;5.00;;;3.10;;
1679;SDS011;838;51.794;12.258;2022-12-26T03:48:37;4.40;;;2.80;;
1679;SDS011;838;51.794;12.258;2022-12-26T03:52:01;4.47;;;3.10;;
1679;SDS011;838;51.794;12.258;2022-12-26T03:58:11;5.90;;;3.33;;
1679;SDS011;838;51.794;12.258;2022-12-26T04:01:17;5.10;;;3.00;;
1679;SDS011;838;51.794;12.258;2022-12-26T04:04:04;5.47;;;3.13;;
1679;SDS011;838;51.794;12.258;2022-12-26T04:06:54;7.03;;;3.87;;
1679;SDS011;838;51.794;12.258;2022-12-26T04:09:48;4.40;;;3.13;;
1679;SDS011;838;51.794;12.258;2022-12-26T04:12:41;4.53;;;2.70;;
1679;SDS011;838;51.794;12.258;2022-12-26T04:15:46;5.70;;;4.00;;
1679;SDS011;838;51.794;12.258;2022-12-26T04:18:46;3.90;;;2.80;;
1679;SDS011;838;51.794;12.258;2022-12-26T04:21:39;4.33;;;2.90;;
1679;SDS011;838;51.794;12.258;2022-12-26T04:24:43;4.90;;;3.10;;
1679;SDS011;838;51.794;12.258;2022-12-26T04:27:52;4.77;;;3.40;;
1679;SDS011;838;51.794;12.258;2022-12-26T04:30:37;4.77;;;3.40;;
1679;SDS011;838;51.794;12.258;2022-12-26T04:33:27;5.00;;;3.30;;
1679;SDS011;838;51.794;12.258;2022-12-26T04:36:24;7.70;;;3.73;;
1679;SDS011;838;51.794;12.258;2022-12-26T04:39:17;5.50;;;3.50;;
1679;SDS011;838;51.794;12.258;2022-12-26T04:42:05;7.20;;;3.40;;
1679;SDS011;838;51.794;12.258;2022-12-26T04:44:51;5.03;;;3.43;;
1679;SDS011;838;51.794;12.258;2022-12-26T04:47:17;5.50;;;3.63;;
1679;SDS011;838;51.794;12.258;2022-12-26T04:49:44;4.77;;;2.77;;
1679;SDS011;838;51.794;12.258;2022-12-26T04:52:28;4.90;;;2.77;;
1679;SDS011;838;51.794;12.258;2022-12-26T04:55:14;6.50;;;3.73;;
1679;SDS011;838;51.794;12.258;2022-12-26T04:57:40;5.30;;;3.10;;
1679;SDS011;838;51.794;12.258;2022-12-26T05:00:06;4.83;;;3.03;;
1679;SDS011;838;51.794;12.258;2022-12-26T05:02:33;4.83;;;3.27;;
1679;SDS011;838;51.794;12.258;2022-12-26T05:05:17;4.80;;;2.97;;
1679;SDS011;838;51.794;12.258;2022-12-26T05:08:01;7.43;;;3.63;;
1679;SDS011;838;51.794;12.258;2022-12-26T05:10:45;4.50;;;3.00;;
1679;SDS011;838;51.794;12.258;2022-12-26T05:13:11;7.00;;;3.30;;
1679;SDS011;838;51.794;12.258;2022-12-26T05:15:37;5.17;;;3.30;;
1679;SDS011;838;51.794;12.258;2022-12-26T05:18:21;5.50;;;2.80;;
1679;SDS011;838;51.794;12.258;2022-12-26T05:21:07;5.23;;;2.93;;
1679;SDS011;838;51.794;12.258;2022-12-26T05:23:56;4.40;;;2.70;;
1679;SDS011;838;51.794;12.258;2022-12-26T05:26:41;7.90;;;4.90;;
1679;SDS011;838;51.794;12.258;2022-12-26T05:29:25;4.47;;;2.80;;
1679;SDS011;838;51.794;12.258;2022-12-26T05:31:51;5.00;;;3.00;;
1679;SDS011;838;51.794;12.258;2022-12-26T05:34:17;5.37;;;3.23;;
1679;SDS011;838;51.794;12.258;2022-12-26T05:39:19;4.70;;;3.07;;
1679;SDS011;838;51.794;12.258;2022-12-26T05:41:44;5.00;;;2.90;;
1679;SDS011;838;51.794;12.258;2022-12-26T05:44:10;8.80;;;3.67;;
1679;SDS011;838;51.794;12.258;2022-12-26T05:46:36;5.07;;;3.37;;
1679;SDS011;838;51.794;12.258;2022-12-26T05:49:03;4.67;;;3.00;;
1679;SDS011;838;51.794;12.258;2022-12-26T05:51:29;4.50;;;3.10;;
1679;SDS011;838;51.794;12.258;2022-12-26T05:53:55;4.83;;;3.17;;
1679;SDS011;838;51.794;12.258;2022-12-26T05:56:21;5.13;;;2.83;;
1679;SDS011;838;51.794;12.258;2022-12-26T05:58:52;5.53;;;3.63;;
1679;SDS011;838;51.794;12.258;2022-12-26T06:01:19;5.13;;;2.97;;
1679;SDS011;838;51.794;12.258;2022-12-26T06:03:46;4.83;;;3.20;;
1679;SDS011;838;51.794;12.258;2022-12-26T06:06:17;5.60;;;3.00;;
1679;SDS011;838;51.794;12.258;2022-12-26T06:08:46;5.43;;;3.47;;
1679;SDS011;838;51.794;12.258;2022-12-26T06:11:13;4.93;;;3.40;;
1679;SDS011;838;51.794;12.258;2022-12-26T06:13:40;6.77;;;3.83;;
1679;SDS011;838;51.794;12.258;2022-12-26T06:16:10;6.77;;;2.80;;
1679;SDS011;838;51.794;12.258;2022-12-26T06:18:37;6.10;;;3.27;;
1679;SDS011;838;51.794;12.258;2022-12-26T06:21:04;8.70;;;3.40;;
1679;SDS011;838;51.794;12.258;2022-12-26T06:23:31;6.37;;;3.23;;
1679;SDS011;838;51.794;12.258;2022-12-26T06:25:57;5.97;;;3.63;;
1679;SDS011;838;51.794;12.258;2022-12-26T06:28:23;5.60;;;3.43;;
1679;SDS011;838;51.794;12.258;2022-12-26T06:30:50;5.10;;;3.43;;
1679;SDS011;838;51.794;12.258;2022-12-26T06:33:16;5.77;;;2.97;;
1679;SDS011;838;51.794;12.258;2022-12-26T06:35:42;4.40;;;2.73;;
1679;SDS011;838;51.794;12.258;2022-12-26T06:38:08;6.53;;;3.73;;
1679;SDS011;838;51.794;12.258;2022-12-26T06:40:38;6.63;;;3.20;;
1679;SDS011;838;51.794;12.258;2022-12-26T06:43:05;5.53;;;3.23;;
1679;SDS011;838;51.794;12.258;2022-12-26T06:45:31;4.30;;;2.70;;
1679;SDS011;838;51.794;12.258;2022-12-26T06:47:57;4.80;;;2.77;;
1679;SDS011;838;51.794;12.258;2022-12-26T06:50:23;5.23;;;2.43;;
1679;SDS011;838;51.794;12.258;2022-12-26T06:52:49;5.73;;;3.20;;
1679;SDS011;838;51.794;12.258;2022-12-26T06:55:15;4.73;;;3.33;;
1679;SDS011;838;51.794;12.258;2022-12-26T06:57:41;5.10;;;2.80;;
1679;SDS011;838;51.794;12.258;2022-12-26T07:00:07;4.73;;;2.97;;
1679;SDS011;838;51.794;12.258;2022-12-26T07:02:34;6.37;;;3.37;;
1679;SDS011;838;51.794;12.258;2022-12-26T07:05:00;5.20;;;3.10;;
1679;SDS011;838;51.794;12.258;2022-12-26T07:07:26;4.23;;;2.83;;
1679;SDS011;838;51.794;12.258;2022-12-26T07:09:51;6.70;;;3.50;;
1679;SDS011;838;51.794;12.258;2022-12-26T07:12:17;5.80;;;3.40;;
1679;SDS011;838;51.794;12.258;2022-12-26T07:14:45;7.90;;;3.50;;
1679;SDS011;838;51.794;12.258;2022-12-26T07:17:11;6.50;;;3.90;;
1679;SDS011;838;51.794;12.258;2022-12-26T07:19:37;5.70;;;3.40;;
1679;SDS011;838;51.794;12.258;2022-12-26T07:22:03;4.30;;;2.93;;
1679;SDS011;838;51.794;12.258;2022-12-26T07:24:28;5.23;;;3.17;;
1679;SDS011;838;51.794;12.258;2022-12-26T07:26:54;4.43;;;3.33;;
1679;SDS011;838;51.794;12.258;2022-12-26T07:29:20;5.87;;;3.23;;
1679;SDS011;838;51.794;12.258;2022-12-26T07:31:46;4.77;;;2.83;;
1679;SDS011;838;51.794;12.258;2022-12-26T07:34:12;4.87;;;3.17;;
1679;SDS011;838;51.794;12.258;2022-12-26T07:36:38;7.73;;;4.10;;
1679;SDS011;838;51.794;12.258;2022-12-26T07:39:04;6.53;;;3.03;;
1679;SDS011;838;51.794;12.258;2022-12-26T07:41:30;6.60;;;3.30;;
1679;SDS011;838;51.794;12.258;2022-12-26T07:44:14;4.67;;;2.87;;
1679;SDS011;838;51.794;12.258;2022-12-26T07:46:40;5.40;;;3.10;;
1679;SDS011;838;51.794;12.258;2022-12-26T07:49:06;9.93;;;3.20;;
1679;SDS011;838;51.794;12.258;2022-12-26T07:51:32;6.60;;;3.53;;
1679;SDS011;838;51.794;12.258;2022-12-26T07:53:58;6.40;;;3.77;;
1679;SDS011;838;51.794;12.258;2022-12-26T07:56:23;5.27;;;3.00;;
1679;SDS011;838;51.794;12.258;2022-12-26T07:58:49;5.00;;;3.03;;
1679;SDS011;838;51.794;12.258;2022-12-26T08:01:16;5.17;;;2.47;;
1679;SDS011;838;51.794;12.258;2022-12-26T08:03:42;5.17;;;3.10;;
1679;SDS011;838;51.794;12.258;2022-12-26T08:06:08;4.73;;;2.80;;
1679;SDS011;838;51.794;12.258;2022-12-26T08:08:34;6.70;;;3.03;;
1679;SDS011;838;51.794;12.258;2022-12-26T08:11:02;6.00;;;3.50;;
1679;SDS011;838;51.794;12.258;2022-12-26T08:13:29;10.33;;;4.60;;
1679;SDS011;838;51.794;12.258;2022-12-26T08:15:56;8.40;;;4.27;;
1679;SDS011;838;51.794;12.258;2022-12-26T08:18:23;5.67;;;3.83;;
1679;SDS011;838;51.794;12.258;2022-12-26T08:20:49;6.63;;;4.03;;
1679;SDS011;838;51.794;12.258;2022-12-26T08:23:15;5.60;;;4.00;;
1679;SDS011;838;51.794;12.258;2022-12-26T08:25:41;4.53;;;2.93;;
1679;SDS011;838;51.794;12.258;2022-12-26T08:28:07;5.00;;;3.30;;
1679;SDS011;838;51.794;12.258;2022-12-26T08:30:34;5.70;;;3.30;;
1679;SDS011;838;51.794;12.258;2022-12-26T08:32:59;7.40;;;3.40;;
1679;SDS011;838;51.794;12.258;2022-12-26T08:35:25;6.00;;;3.70;;
1679;SDS011;838;51.794;12.258;2022-12-26T08:37:51;5.67;;;3.20;;
1679;SDS011;838;51.794;12.258;2022-12-26T08:40:16;5.57;;;3.60;;
1679;SDS011;838;51.794;12.258;2022-12-26T08:42:42;4.03;;;2.73;;
1679;SDS011;838;51.794;12.258;2022-12-26T08:45:07;7.40;;;3.37;;
1679;SDS011;838;51.794;12.258;2022-12-26T08:47:33;8.83;;;3.90;;
1679;SDS011;838;51.794;12.258;2022-12-26T08:49:59;8.40;;;3.63;;
1679;SDS011;838;51.794;12.258;2022-12-26T08:52:25;6.37;;;3.47;;
1679;SDS011;838;51.794;12.258;2022-12-26T08:54:50;5.10;;;3.47;;
1679;SDS011;838;51.794;12.258;2022-12-26T08:57:16;7.90;;;3.70;;
1679;SDS011;838;51.794;12.258;2022-12-26T08:59:42;5.20;;;3.20;;
1679;SDS011;838;51.794;12.258;2022-12-26T09:02:10;5.83;;;3.23;;
1679;SDS011;838;51.794;12.258;2022-12-26T09:04:36;4.90;;;3.30;;
1679;SDS011;838;51.794;12.258;2022-12-26T09:07:02;5.93;;;3.57;;
1679;SDS011;838;51.794;12.258;2022-12-26T09:09:28;5.80;;;3.77;;
1679;SDS011;838;51.794;12.258;2022-12-26T09:11:54;7.10;;;4.03;;
1679;SDS011;838;51.794;12.258;2022-12-26T09:14:20;7.13;;;5.20;;
1679;SDS011;838;51.794;12.258;2022-12-26T09:16:45;8.83;;;4.67;;
1679;SDS011;838;51.794;12.258;2022-12-26T09:19:13;8.43;;;6.07;;
1679;SDS011;838;51.794;12.258;2022-12-26T09:21:43;5.77;;;4.07;;
1679;SDS011;838;51.794;12.258;2022-12-26T09:24:10;9.77;;;4.93;;
1679;SDS011;838;51.794;12.258;2022-12-26T09:26:38;9.10;;;4.40;;
1679;SDS011;838;51.794;12.258;2022-12-26T09:29:04;7.03;;;3.97;;
1679;SDS011;838;51.794;12.258;2022-12-26T09:31:31;7.77;;;4.27;;
1679;SDS011;838;51.794;12.258;2022-12-26T09:33:59;5.67;;;4.13;;
1679;SDS011;838;51.794;12.258;2022-12-26T09:36:27;6.40;;;4.37;;
1679;SDS011;838;51.794;12.258;2022-12-26T09:38:56;7.63;;;4.17;;
1679;SDS011;838;51.794;12.258;2022-12-26T09:50:10;6.10;;;3.50;;
1679;SDS011;838;51.794;12.258;2022-12-26T09:58:03;5.23;;;3.40;;
1679;SDS011;838;51.794;12.258;2022-12-26T10:00:42;5.63;;;3.70;;
1679;SDS011;838;51.794;12.258;2022-12-26T10:03:16;6.20;;;3.30;;
1679;SDS011;838;51.794;12.258;2022-12-26T10:05:48;7.10;;;4.00;;
1679;SDS011;838;51.794;12.258;2022-12-26T10:08:49;6.40;;;4.70;;
1679;SDS011;838;51.794;12.258;2022-12-26T10:14:13;7.90;;;4.57;;
1679;SDS011;838;51.794;12.258;2022-12-26T10:16:51;7.60;;;4.13;;
1679;SDS011;838;51.794;12.258;2022-12-26T10:19:55;7.00;;;4.80;;
1679;SDS011;838;51.794;12.258;2022-12-26T10:25:19;7.57;;;4.20;;
1679;SDS011;838;51.794;12.258;2022-12-26T10:27:57;6.23;;;3.83;;
1679;SDS011;838;51.794;12.258;2022-12-26T10:30:26;5.37;;;3.70;;
1679;SDS011;838;51.794;12.258;2022-12-26T10:33:01;7.53;;;4.10;;
1679;SDS011;838;51.794;12.258;2022-12-26T10:35:35;7.40;;;3.37;;
1679;SDS011;838;51.794;12.258;2022-12-26T10:38:08;5.67;;;3.60;;
1679;SDS011;838;51.794;12.258;2022-12-26T10:40:55;6.73;;;4.30;;
1679;SDS011;838;51.794;12.258;2022-12-26T10:43:31;5.80;;;4.70;;
1679;SDS011;838;51.794;12.258;2022-12-26T10:48:30;8.47;;;4.70;;
1679;SDS011;838;51.794;12.258;2022-12-26T10:50:55;8.80;;;5.63;;
1679;SDS011;838;51.794;12.258;2022-12-26T10:53:21;16.87;;;5.70;;
1679;SDS011;838;51.794;12.258;2022-12-26T10:55:47;13.70;;;5.60;;
1679;SDS011;838;51.794;12.258;2022-12-26T11:00:40;7.20;;;5.27;;
1679;SDS011;838;51.794;12.258;2022-12-26T11:05:43;8.43;;;5.10;;
1679;SDS011;838;51.794;12.258;2022-12-26T11:08:22;7.23;;;3.90;;
1679;SDS011;838;51.794;12.258;2022-12-26T11:11:04;10.23;;;5.63;;
1679;SDS011;838;51.794;12.258;2022-12-26T11:13:35;7.30;;;4.60;;
1679;SDS011;838;51.794;12.258;2022-12-26T11:16:04;9.70;;;5.57;;
1679;SDS011;838;51.794;12.258;2022-12-26T11:18:48;9.23;;;6.17;;
1679;SDS011;838;51.794;12.258;2022-12-26T11:23:41;8.47;;;5.53;;
1679;SDS011;838;51.794;12.258;2022-12-26T11:26:24;8.57;;;5.40;;
1679;SDS011;838;51.794;12.258;2022-12-26T11:29:05;8.50;;;4.80;;
1679;SDS011;838;51.794;12.258;2022-12-26T11:31:35;8.90;;;5.20;;
1679;SDS011;838;51.794;12.258;2022-12-26T11:34:06;7.40;;;5.23;;
1679;SDS011;838;51.794;12.258;2022-12-26T11:36:43;8.40;;;4.63;;
1679;SDS011;838;51.794;12.258;2022-12-26T11:41:46;9.20;;;4.93;;
1679;SDS011;838;51.794;12.258;2022-12-26T11:52:43;6.87;;;4.40;;
1679;SDS011;838;51.794;12.258;2022-12-26T11:54:54;8.40;;;5.67;;
1679;SDS011;838;51.794;12.258;2022-12-26T11:57:21;6.90;;;3.70;;
1679;SDS011;838;51.794;12.258;2022-12-26T11:59:52;5.40;;;3.27;;
1679;SDS011;838;51.794;12.258;2022-12-26T12:02:24;6.60;;;4.33;;
1679;SDS011;838;51.794;12.258;2022-12-26T12:05:05;6.63;;;3.97;;
1679;SDS011;838;51.794;12.258;2022-12-26T12:18:28;7.77;;;2.63;;
1679;SDS011;838;51.794;12.258;2022-12-26T12:27:15;4.60;;;2.57;;
1679;SDS011;838;51.794;12.258;2022-12-26T12:32:30;3.80;;;2.47;;
1679;SDS011;838;51.794;12.258;2022-12-26T12:48:35;3.70;;;2.17;;
1679;SDS011;838;51.794;12.258;2022-12-26T12:51:45;4.50;;;2.17;;
1679;SDS011;838;51.794;12.258;2022-12-26T12:54:31;5.57;;;2.40;;
1679;SDS011;838;51.794;12.258;2022-12-26T13:02:42;8.50;;;2.87;;
1679;SDS011;838;51.794;12.258;2022-12-26T13:09:03;6.00;;;1.90;;
1679;SDS011;838;51.794;12.258;2022-12-26T13:16:27;3.53;;;1.80;;
1679;SDS011;838;51.794;12.258;2022-12-26T13:19:08;3.70;;;1.80;;
1679;SDS011;838;51.794;12.258;2022-12-26T13:21:41;3.00;;;1.53;;
1679;SDS011;838;51.794;12.258;2022-12-26T13:24:12;3.80;;;1.40;;
1679;SDS011;838;51.794;12.258;2022-12-26T13:29:44;2.80;;;1.37;;
1679;SDS011;838;51.794;12.258;2022-12-26T13:32:28;3.90;;;1.93;;
1679;SDS011;838;51.794;12.258;2022-12-26T13:34:59;3.40;;;1.40;;
1679;SDS011;838;51.794;12.258;2022-12-26T13:42:39;2.60;;;1.20;;
1679;SDS011;838;51.794;12.258;2022-12-26T13:45:45;3.13;;;1.50;;
1679;SDS011;838;51.794;12.258;2022-12-26T13:50:46;2.50;;;1.23;;
1679;SDS011;838;51.794;12.258;2022-12-26T13:53:24;3.00;;;1.47;;
1679;SDS011;838;51.794;12.258;2022-12-26T13:55:55;2.50;;;1.20;;
1679;SDS011;838;51.794;12.258;2022-12-26T14:01:03;2.80;;;1.40;;
1679;SDS011;838;51.794;12.258;2022-12-26T14:15:06;3.67;;;1.37;;
1679;SDS011;838;51.794;12.258;2022-12-26T14:20:50;4.20;;;1.60;;
1679;SDS011;838;51.794;12.258;2022-12-26T14:23:44;2.87;;;1.67;;
1679;SDS011;838;51.794;12.258;2022-12-26T14:26:34;3.60;;;2.30;;
1679;SDS011;838;51.794;12.258;2022-12-26T14:37:11;2.80;;;1.37;;
1679;SDS011;838;51.794;12.258;2022-12-26T14:55:52;3.40;;;1.60;;
1679;SDS011;838;51.794;12.258;2022-12-26T14:58:27;5.17;;;2.00;;
1679;SDS011;838;51.794;12.258;2022-12-26T15:03:56;3.60;;;1.37;;
1679;SDS011;838;51.794;12.258;2022-12-26T15:39:41;5.63;;;1.50;;
1679;SDS011;838;51.794;12.258;2022-12-26T15:42:49;2.70;;;1.40;;
1679;SDS011;838;51.794;12.258;2022-12-26T15:53:46;3.00;;;1.40;;
1679;SDS011;838;51.794;12.258;2022-12-26T16:02:39;3.10;;;1.53;;
1679;SDS011;838;51.794;12.258;2022-12-26T16:05:10;3.07;;;1.83;;
1679;SDS011;838;51.794;12.258;2022-12-26T16:10:49;2.97;;;1.67;;
1679;SDS011;838;51.794;12.258;2022-12-26T16:13:34;2.77;;;1.47;;
1679;SDS011;838;51.794;12.258;2022-12-26T16:16:00;3.00;;;1.20;;
1679;SDS011;838;51.794;12.258;2022-12-26T16:18:30;5.03;;;1.37;;
1679;SDS011;838;51.794;12.258;2022-12-26T16:21:03;2.67;;;1.37;;
1679;SDS011;838;51.794;12.258;2022-12-26T16:23:49;2.70;;;1.30;;
1679;SDS011;838;51.794;12.258;2022-12-26T16:26:25;3.47;;;2.07;;
1679;SDS011;838;51.794;12.258;2022-12-26T16:28:53;3.10;;;1.43;;
1679;SDS011;838;51.794;12.258;2022-12-26T16:31:25;4.30;;;1.77;;
1679;SDS011;838;51.794;12.258;2022-12-26T16:33:53;3.40;;;1.80;;
1679;SDS011;838;51.794;12.258;2022-12-26T16:36:27;5.90;;;1.67;;
1679;SDS011;838;51.794;12.258;2022-12-26T16:38:55;3.40;;;1.60;;
1679;SDS011;838;51.794;12.258;2022-12-26T16:41:24;3.33;;;1.77;;
1679;SDS011;838;51.794;12.258;2022-12-26T16:43:55;5.43;;;2.20;;
1679;SDS011;838;51.794;12.258;2022-12-26T16:46:26;7.70;;;1.90;;
1679;SDS011;838;51.794;12.258;2022-12-26T16:48:57;4.33;;;1.73;;
1679;SDS011;838;51.794;12.258;2022-12-26T16:56:52;4.40;;;1.80;;
1679;SDS011;838;51.794;12.258;2022-12-26T16:59:54;3.87;;;2.10;;
1679;SDS011;838;51.794;12.258;2022-12-26T17:02:23;5.60;;;1.97;;
1679;SDS011;838;51.794;12.258;2022-12-26T17:05:01;5.63;;;2.30;;
1679;SDS011;838;51.794;12.258;2022-12-26T17:07:30;6.53;;;2.70;;
1679;SDS011;838;51.794;12.258;2022-12-26T17:09:58;4.37;;;1.97;;
1679;SDS011;838;51.794;12.258;2022-12-26T17:12:26;4.50;;;1.93;;
1679;SDS011;838;51.794;12.258;2022-12-26T17:14:58;3.80;;;2.03;;
1679;SDS011;838;51.794;12.258;2022-12-26T17:17:27;3.10;;;1.50;;
1679;SDS011;838;51.794;12.258;2022-12-26T17:19:56;3.20;;;1.90;;
1679;SDS011;838;51.794;12.258;2022-12-26T17:22:34;3.23;;;1.60;;
1679;SDS011;838;51.794;12.258;2022-12-26T17:27:42;4.07;;;1.70;;
1679;SDS011;838;51.794;12.258;2022-12-26T17:30:28;3.20;;;1.57;;
1679;SDS011;838;51.794;12.258;2022-12-26T17:32:59;3.57;;;1.67;;
1679;SDS011;838;51.794;12.258;2022-12-26T17:35:34;3.13;;;1.60;;
1679;SDS011;838;51.794;12.258;2022-12-26T17:38:01;3.47;;;1.50;;
1679;SDS011;838;51.794;12.258;2022-12-26T17:40:37;6.80;;;1.90;;
1679;SDS011;838;51.794;12.258;2022-12-26T17:43:49;3.13;;;1.60;;
1679;SDS011;838;51.794;12.258;2022-12-26T17:45:55;3.43;;;1.60;;
1679;SDS011;838;51.794;12.258;2022-12-26T17:48:20;3.27;;;1.37;;
1679;SDS011;838;51.794;12.258;2022-12-26T17:50:47;5.20;;;1.90;;
1679;SDS011;838;51.794;12.258;2022-12-26T17:55:46;7.60;;;2.77;;
1679;SDS011;838;51.794;12.258;2022-12-26T17:58:13;19.53;;;8.73;;
1679;SDS011;838;51.794;12.258;2022-12-26T18:00:39;4.80;;;1.60;;
1679;SDS011;838;51.794;12.258;2022-12-26T18:03:06;3.00;;;1.30;;
1679;SDS011;838;51.794;12.258;2022-12-26T18:05:32;3.23;;;1.47;;
1679;SDS011;838;51.794;12.258;2022-12-26T18:07:59;4.20;;;1.77;;
1679;SDS011;838;51.794;12.258;2022-12-26T18:10:26;4.40;;;1.70;;
1679;SDS011;838;51.794;12.258;2022-12-26T18:12:57;4.87;;;1.77;;
1679;SDS011;838;51.794;12.258;2022-12-26T18:15:24;5.07;;;1.90;;
1679;SDS011;838;51.794;12.258;2022-12-26T18:17:51;3.60;;;1.90;;
1679;SDS011;838;51.794;12.258;2022-12-26T18:20:22;3.80;;;1.70;;
1679;SDS011;838;51.794;12.258;2022-12-26T18:22:49;3.73;;;1.77;;
1679;SDS011;838;51.794;12.258;2022-12-26T18:25:17;3.57;;;1.90;;
1679;SDS011;838;51.794;12.258;2022-12-26T18:27:44;5.20;;;2.17;;
1679;SDS011;838;51.794;12.258;2022-12-26T18:30:13;5.10;;;2.83;;
1679;SDS011;838;51.794;12.258;2022-12-26T18:32:46;4.60;;;2.37;;
1679;SDS011;838;51.794;12.258;2022-12-26T18:35:13;3.87;;;2.20;;
1679;SDS011;838;51.794;12.258;2022-12-26T18:37:41;4.33;;;2.00;;
1679;SDS011;838;51.794;12.258;2022-12-26T18:42:56;4.10;;;1.83;;
1679;SDS011;838;51.794;12.258;2022-12-26T18:45:22;4.03;;;2.07;;
1679;SDS011;838;51.794;12.258;2022-12-26T18:47:47;8.37;;;2.30;;
1679;SDS011;838;51.794;12.258;2022-12-26T18:50:13;5.20;;;2.20;;
1679;SDS011;838;51.794;12.258;2022-12-26T18:52:40;5.07;;;2.03;;
1679;SDS011;838;51.794;12.258;2022-12-26T18:55:06;6.77;;;3.00;;
1679;SDS011;838;51.794;12.258;2022-12-26T18:57:32;4.73;;;2.23;;
1679;SDS011;838;51.794;12.258;2022-12-26T18:59:58;4.40;;;2.17;;
1679;SDS011;838;51.794;12.258;2022-12-26T19:02:24;5.13;;;2.53;;
1679;SDS011;838;51.794;12.258;2022-12-26T19:04:50;8.37;;;2.53;;
1679;SDS011;838;51.794;12.258;2022-12-26T19:07:16;3.70;;;2.20;;
1679;SDS011;838;51.794;12.258;2022-12-26T19:09:45;4.70;;;2.40;;
1679;SDS011;838;51.794;12.258;2022-12-26T19:12:12;8.03;;;2.60;;
1679;SDS011;838;51.794;12.258;2022-12-26T19:14:40;7.40;;;2.70;;
1679;SDS011;838;51.794;12.258;2022-12-26T19:17:07;5.23;;;2.33;;
1679;SDS011;838;51.794;12.258;2022-12-26T19:19:33;7.60;;;3.00;;
1679;SDS011;838;51.794;12.258;2022-12-26T19:21:59;3.80;;;2.10;;
1679;SDS011;838;51.794;12.258;2022-12-26T19:24:25;4.00;;;2.30;;
1679;SDS011;838;51.794;12.258;2022-12-26T19:26:50;6.80;;;2.33;;
1679;SDS011;838;51.794;12.258;2022-12-26T19:29:16;4.23;;;1.73;;
1679;SDS011;838;51.794;12.258;2022-12-26T19:31:42;5.33;;;2.40;;
1679;SDS011;838;51.794;12.258;2022-12-26T19:34:07;3.70;;;2.07;;
1679;SDS011;838;51.794;12.258;2022-12-26T19:36:34;5.07;;;1.60;;
1679;SDS011;838;51.794;12.258;2022-12-26T19:39:00;3.37;;;1.50;;
1679;SDS011;838;51.794;12.258;2022-12-26T19:41:26;3.40;;;1.50;;
1679;SDS011;838;51.794;12.258;2022-12-26T19:43:55;3.50;;;1.40;;
1679;SDS011;838;51.794;12.258;2022-12-26T19:46:22;6.27;;;1.60;;
1679;SDS011;838;51.794;12.258;2022-12-26T19:48:49;6.70;;;1.70;;
1679;SDS011;838;51.794;12.258;2022-12-26T19:51:15;5.63;;;2.80;;
1679;SDS011;838;51.794;12.258;2022-12-26T19:53:42;4.80;;;1.73;;
1679;SDS011;838;51.794;12.258;2022-12-26T19:56:20;4.57;;;1.87;;
1679;SDS011;838;51.794;12.258;2022-12-26T19:58:48;3.37;;;1.50;;
1679;SDS011;838;51.794;12.258;2022-12-26T20:01:21;4.90;;;1.50;;
1679;SDS011;838;51.794;12.258;2022-12-26T20:03:49;5.30;;;1.63;;
1679;SDS011;838;51.794;12.258;2022-12-26T20:06:20;7.47;;;1.93;;